Flight Track Log - Related Links

Times and Time Zones

All times are in EDT time to prevent confusion due to time zone crossing. See the N173AA flight status page for this flight to view local times or setup timezone preferences in your user account.

Time Position Orientation Groundspeed Altitude Reporting Facility
EDT Latitude Longitude Course Direction KTS MPH feet Rate Location/Type
Thu 02:37:26 PM 35.5506 -77.4864 192° South 363 418 4,900  Level Washington Center
Thu 02:38:26 PM 35.4983 -77.5003 192° South 348 400 7,100 1,950 Climbing Washington Center
Thu 02:39:26 PM 35.4558 -77.5428 219° Southwest 267 307 8,800 1,650 Climbing Washington Center
Thu 02:40:26 PM 35.4072 -77.5875 217° Southwest 238 274 10,400 1,650 Climbing Washington Center
Thu 02:41:26 PM 35.3583 -77.6372 220° Southwest 226 260 12,100 1,700 Climbing Washington Center
Thu 02:42:26 PM 35.3094 -77.6894 221° Southwest 232 267 13,800 1,650 Climbing Washington Center
Thu 02:43:26 PM 35.2561 -77.7439 220° Southwest 239 275 15,400 1,600 Climbing Washington Center
Thu 02:44:26 PM 35.2072 -77.8011 224° Southwest 239 275 17,000 1,300 Climbing Washington Center
Thu 02:45:26 PM 35.1519 -77.8553 219° Southwest 250 288 18,000 950 Climbing Washington Center
Thu 02:46:26 PM 35.0925 -77.9122 218° Southwest 263 303 18,900 1,150 Climbing Washington Center
Thu 02:47:26 PM 35.0328 -77.9764 221° Southwest 274 315 20,300 1,350 Climbing Washington Center
Thu 02:48:26 PM 34.9731 -78.0356 219° Southwest 281 323 21,600 1,350 Climbing Washington Center
Thu 02:49:26 PM 34.9156 -78.0919 219° Southwest 281 323 23,000 1,250 Climbing Washington Center
Thu 02:50:26 PM 34.8583 -78.1433 216° Southwest 276 318 24,100 500 Climbing Washington Center
Thu 02:51:26 PM 34.7942 -78.2097 220° Southwest 283 326 24,000 -50 Descending Washington Center
Thu 02:52:26 PM 34.7261 -78.2731 217° Southwest 301 346 24,000  Level Washington Center
Thu 02:53:26 PM 34.6578 -78.3417 220° Southwest 312 359 24,000  Level Washington Center
Thu 02:54:04 PM 34.6114 -78.3897 220° Southwest 318 366 24,000  Level Jacksonville Center
Thu 02:55:04 PM 34.5467 -78.4511 218° Southwest 306 352 24,000 50 Level Jacksonville Center
Thu 02:56:04 PM 34.4806 -78.5250 223° Southwest 311 358 24,100  Climbing Jacksonville Center
Thu 02:57:04 PM 34.4081 -78.6017 221° Southwest 317 365 24,000 -50 Descending Jacksonville Center
Thu 02:58:04 PM 34.3414 -78.6628 217° Southwest 322 371 24,000  Level Jacksonville Center
Thu 02:59:04 PM 34.2706 -78.7292 218° Southwest 328 377 24,000  Level Jacksonville Center
Thu 03:00:04 PM 34.1997 -78.7978 219° Southwest 328 377 24,000  Level Jacksonville Center
Thu 03:01:04 PM 34.1289 -78.8639 218° Southwest 328 377 24,000  Level Jacksonville Center
Thu 03:02:04 PM 34.0600 -78.9322 219° Southwest 328 377 24,000  Level Jacksonville Center
Thu 03:03:04 PM 33.9872 -79.0006 218° Southwest 333 383 24,000  Level Jacksonville Center
Thu 03:04:04 PM 33.9100 -79.0742 218° Southwest 338 389 24,000  Level Jacksonville Center
Thu 03:05:04 PM 33.8389 -79.1397 217° Southwest 338 389 24,000  Level Jacksonville Center
Thu 03:06:04 PM 33.7700 -79.2075 219° Southwest 338 389 24,000  Level Jacksonville Center
Thu 03:07:04 PM 33.7053 -79.2728 220° Southwest 333 383 24,000  Level Jacksonville Center
Thu 03:08:04 PM 33.6361 -79.3403 219° Southwest 325 374 24,000  Level Jacksonville Center
Thu 03:09:04 PM 33.5650 -79.4056 217° Southwest 325 374 24,000  Level Jacksonville Center
Thu 03:10:04 PM 33.4939 -79.4756 219° Southwest 325 374 24,000  Level Jacksonville Center
Thu 03:11:04 PM 33.4247 -79.5403 218° Southwest 325 374 24,000  Level Jacksonville Center
Thu 03:12:04 PM 33.3533 -79.6078 218° Southwest 325 374 24,000  Level Jacksonville Center
Thu 03:13:04 PM 33.2822 -79.6775 219° Southwest 325 374 24,000  Level Jacksonville Center
Thu 03:14:04 PM 33.2211 -79.7367 219° Southwest 325 374 24,000  Level Jacksonville Center
Thu 03:15:04 PM 33.1494 -79.8014 217° Southwest 325 374 24,000  Level Jacksonville Center
Thu 03:16:04 PM 33.0781 -79.8658 217° Southwest 325 374 24,000  Level Jacksonville Center
Thu 03:17:04 PM 33.0067 -79.9325 218° Southwest 325 374 24,000  Level Jacksonville Center
Thu 03:18:04 PM 32.9331 -79.9994 217° Southwest 325 374 24,000  Level Jacksonville Center
Thu 03:19:04 PM 32.8592 -80.0611 215° Southwest 325 374 24,000  Level Jacksonville Center
Thu 03:20:04 PM 32.7833 -80.1178 212° Southwest 331 381 24,000  Level Jacksonville Center
Thu 03:21:04 PM 32.7050 -80.1719 210° Southwest 331 381 24,000  Level Jacksonville Center
Thu 03:22:04 PM 32.6225 -80.2139 203° Southwest 325 374 24,000  Level Jacksonville Center
Thu 03:23:04 PM 32.5400 -80.2558 203° Southwest 325 374 24,000  Level Jacksonville Center
Thu 03:24:04 PM 32.4531 -80.2928 200° South 331 381 24,000  Level Jacksonville Center
Thu 03:25:04 PM 32.3681 -80.3297 200° South 331 381 24,000  Level Jacksonville Center
Thu 03:26:04 PM 32.2833 -80.3689 201° Southwest 326 375 24,000  Level Jacksonville Center
Thu 03:27:04 PM 32.1964 -80.4081 201° Southwest 326 375 24,000  Level Jacksonville Center
Thu 03:28:04 PM 32.1033 -80.4500 201° Southwest 323 372 24,000  Level Jacksonville Center
Thu 03:29:04 PM 32.0247 -80.4839 200° South 328 377 24,000  Level Jacksonville Center
Thu 03:30:04 PM 31.9314 -80.5256 201° Southwest 328 377 24,000  Level Jacksonville Center
Thu 03:31:04 PM 31.8550 -80.5617 202° Southwest 328 377 24,000  Level Jacksonville Center
Thu 03:32:04 PM 31.7639 -80.6103 204° Southwest 333 383 24,000  Level Jacksonville Center
Thu 03:33:04 PM 31.6811 -80.6564 205° Southwest 333 383 24,000  Level Jacksonville Center
Thu 03:34:04 PM 31.5983 -80.6997 204° Southwest 338 389 24,000  Level Jacksonville Center
Thu 03:35:04 PM 31.5136 -80.7433 204° Southwest 333 383 24,000  Level Jacksonville Center
Thu 03:36:04 PM 31.4331 -80.7889 206° Southwest 328 377 24,000  Level Jacksonville Center
Thu 03:37:04 PM 31.3606 -80.8294 206° Southwest 328 377 24,000  Level Jacksonville Center
Thu 03:38:04 PM 31.2675 -80.8800 205° Southwest 339 390 24,000  Level Jacksonville Center
Thu 03:39:04 PM 31.1825 -80.9183 201° Southwest 339 390 24,000  Level Jacksonville Center
Thu 03:40:04 PM 31.0972 -80.9542 200° South 325 374 24,000  Level Jacksonville Center
Thu 03:41:04 PM 31.0122 -80.9897 200° South 333 383 24,000  Level Jacksonville Center
Thu 03:42:04 PM 30.9231 -81.0231 198° South 328 377 24,000  Level Jacksonville Center
Thu 03:43:04 PM 30.8381 -81.0586 200° South 328 377 24,000  Level Jacksonville Center
Thu 03:44:04 PM 30.7508 -81.0942 199° South 328 377 24,000  Level Jacksonville Center
Thu 03:45:04 PM 30.6656 -81.1344 202° Southwest 328 377 24,000  Level Jacksonville Center
Thu 03:46:04 PM 30.5764 -81.1625 195° South 328 377 24,000  Level Jacksonville Center
Thu 03:47:04 PM 30.4844 -81.1594 178° South 323 372 24,000  Level Jacksonville Center
Thu 03:48:04 PM 30.3883 -81.1539 177° South 329 379 24,000  Level Jacksonville Center
Thu 03:49:04 PM 30.2922 -81.1436 175° South 336 387 24,000  Level Jacksonville Center
Thu 03:50:04 PM 30.1981 -81.1381 177° South 341 392 24,000  Level Jacksonville Center
Thu 03:51:04 PM 30.1042 -81.1328 177° South 346 398 24,000  Level Jacksonville Center
Thu 03:52:04 PM 30.0100 -81.1272 177° South 346 398 24,000  Level Jacksonville Center
Thu 03:53:04 PM 29.9161 -81.1264 180° South 346 398 24,000  Level Jacksonville Center
Thu 03:54:04 PM 29.8200 -81.1283 181° South 346 398 24,000  Level Jacksonville Center
Thu 03:55:04 PM 29.7261 -81.1228 177° South 346 398 24,000 -200 Level Jacksonville Center
Thu 03:56:04 PM 29.6300 -81.1222 180° South 346 398 23,600 -900 Descending Jacksonville Center
Thu 03:57:04 PM 29.5381 -81.1214 180° South 346 398 22,200 -1,500 Descending Jacksonville Center
Thu 03:58:04 PM 29.4547 -81.1231 181° South 340 391 20,600 -2,050 Descending Jacksonville Center
Thu 03:59:04 PM 29.3647 -81.1150 176° South 334 384 18,100 -2,700 Descending Jacksonville Center
Thu 04:00:04 PM 29.2708 -81.1192 182° South 334 384 15,200 -2,400 Descending Jacksonville Center
Thu 04:01:04 PM 29.1831 -81.1089 174° South 324 373 13,300 -1,300 Descending Jacksonville Center
Thu 04:02:04 PM 29.1058 -81.1031 176° South 310 357 12,600 -650 Descending Jacksonville Center
Thu 04:03:04 PM 29.0306 -81.0972 176° South 285 328 12,000 -350 Descending Jacksonville Center
Thu 04:04:04 PM 28.9597 -81.0986 181° South 274 315 11,900 -600 Descending Jacksonville Center
Thu 04:05:04 PM 28.8908 -81.1022 183° South 255 293 10,800 -1,227 Descending Jacksonville Center
Thu 04:05:32 PM 28.8500 -81.1000 177° South 247 284 10,100 -940 Descending Orlando TRACON
Thu 04:06:27 PM 28.8000 -81.1167 196° South 221 254 9,500 -835 Descending Orlando TRACON
Thu 04:07:27 PM 28.7500 -81.1500 210° Southwest 219 252 8,500 -750 Descending Orlando TRACON
Thu 04:08:27 PM 28.7000 -81.1833 210° Southwest 230 265 8,000 -250 Descending Orlando TRACON
Thu 04:09:27 PM 28.6500 -81.2500 229° Southwest 230 265 8,000 -381 Level Orlando TRACON
Thu 04:10:33 PM 28.6167 -81.3167 240° Southwest 243 280 7,200 -905 Descending Orlando TRACON
Thu 04:11:33 PM 28.6000 -81.3833 254° West 224 258 6,100 -947 Descending Orlando TRACON
Thu 04:12:27 PM 28.5833 -81.4500 254° West 228 262 5,400 -737 Descending Orlando TRACON
Thu 04:13:27 PM 28.5667 -81.5167 254° West 220 253 4,700 -1,158 Descending Orlando TRACON
Thu 04:14:21 PM 28.5167 -81.5167 180° South 195 224 3,200 -1,211 Descending Orlando TRACON
Thu 04:15:21 PM 28.4667 -81.5167 180° South 169 194 2,400 -645 Descending Orlando TRACON
Thu 04:16:22 PM 28.4333 -81.5000 156° South 168 193 1,900 -347 Descending Orlando TRACON
Thu 04:17:22 PM 28.3833 -81.4833 164° South 139 160 1,700 -250 Descending Orlando TRACON
Thu 04:18:22 PM 28.3500 -81.4833 180° South 146 168 1,400 -524 Descending Orlando TRACON
Thu 04:19:28 PM 28.3167 -81.4500 139° Southeast 111 128 600 -727 Descending Orlando TRACON
Thu 04:21:00 PM 28.2898 -81.4371 158° South  Level Estimated
Thu 04:28:00 PM 28.2898 -81.4371 158° South  Level Estimated
Thu 04:29:00 PM 28.2898 -81.4371 158° South  Level Estimated
Thu 04:30:00 PM 28.2898 -81.4371 158° South  Level Estimated
Thu 04:31:00 PM 28.2898 -81.4371 158° South  Level Estimated

Login

Don't have an account? Register now (free) for customized features, flight alerts, and more!